Time,TemperatureF,DewpointF,PressureIn,WindDirection,WindDirectionDegrees,WindSpeedMPH,WindSpeedGustMPH,Humidity,HourlyPrecipIn,Conditions,Clouds,dailyrainin,SoftwareType,DateUTC
2013-10-30 00:22:00,53.0,51.0,-100.00,SE,140,12.0,16.0,94,0.13,,,-99.99,,2013-10-30 05:22:00,
2013-10-30 00:43:00,53.0,51.0,-100.00,SE,145,10.0,14.0,94,0.00,,,-99.99,,2013-10-30 05:43:00,
2013-10-30 01:22:00,53.0,51.0,-100.00,SE,135,9.0,13.0,94,0.00,,,-99.99,,2013-10-30 06:22:00,
2013-10-30 01:42:00,53.0,51.0,-100.00,SE,145,7.0,11.0,94,0.14,,,-99.99,,2013-10-30 06:42:00,
2013-10-30 02:11:00,53.0,51.0,-100.00,SE,145,9.0,12.0,94,0.00,,,-99.99,,2013-10-30 07:11:00,
2013-10-30 02:21:00,53.0,51.0,-100.00,SE,140,9.0,12.0,94,0.17,,,-99.99,,2013-10-30 07:21:00,
2013-10-30 02:42:00,53.0,51.0,-100.00,SE,145,9.0,14.0,94,0.00,,,-99.99,,2013-10-30 07:42:00,
2013-10-30 03:21:00,53.0,51.0,-100.00,SE,145,12.0,13.0,94,0.00,,,-99.99,,2013-10-30 08:21:00,
2013-10-30 03:42:00,53.0,51.0,-100.00,SSE,150,9.0,12.0,94,0.00,,,-99.99,,2013-10-30 08:42:00,
2013-10-30 04:11:00,53.0,51.0,-100.00,SSE,150,9.0,11.0,94,0.00,,,-99.99,,2013-10-30 09:11:00,
2013-10-30 04:22:00,53.0,51.0,-100.00,SE,145,9.0,12.0,94,0.00,,,-99.99,,2013-10-30 09:22:00,
2013-10-30 04:42:00,53.0,51.0,-100.00,SE,145,7.0,11.0,94,0.00,,,-99.99,,2013-10-30 09:42:00,
2013-10-30 05:23:00,53.0,51.0,-100.00,SSE,150,7.0,9.0,94,0.00,,,-99.99,,2013-10-30 10:23:00,
2013-10-30 05:43:00,53.0,51.0,-100.00,SSE,150,7.0,9.0,94,0.00,,,-99.99,,2013-10-30 10:43:00,
2013-10-30 06:22:00,53.0,51.0,-100.00,SSE,155,7.0,9.0,94,0.00,,,-99.99,,2013-10-30 11:22:00,
2013-10-30 06:42:00,53.0,52.0,-100.00,SSE,160,7.0,9.0,94,0.00,,,-99.99,,2013-10-30 11:42:00,
2013-10-30 07:12:00,53.0,52.0,-100.00,SSE,155,6.0,10.0,94,0.00,,,-99.99,,2013-10-30 12:12:00,
2013-10-30 07:22:00,53.0,52.0,-100.00,SE,140,6.0,7.0,94,0.00,,,-99.99,,2013-10-30 12:22:00,
2013-10-30 07:42:00,53.0,52.0,-100.00,SE,135,5.0,7.0,94,0.00,,,-99.99,,2013-10-30 12:42:00,
2013-10-30 08:42:00,54.0,53.0,-100.00,ESE,120,4.0,5.0,94,0.00,,,-99.99,,2013-10-30 13:42:00,
2013-10-30 09:21:00,55.0,53.0,-100.00,North,350,10.0,13.0,94,0.11,,,-99.99,,2013-10-30 14:21:00,
2013-10-30 09:42:00,55.0,53.0,-100.00,NW,325,4.0,14.0,94,0.21,,,-99.99,,2013-10-30 14:42:00,
2013-10-30 10:22:00,53.0,52.0,-100.00,North,0,9.0,19.0,94,0.24,,,-99.99,,2013-10-30 15:22:00,
2013-10-30 10:43:00,53.0,51.0,-100.00,NE,55,6.0,17.0,94,0.24,,,-99.99,,2013-10-30 15:43:00,
2013-10-30 11:23:00,53.0,52.0,-100.00,East,85,8.0,10.0,94,0.50,,,-99.99,,2013-10-30 16:23:00,
2013-10-30 11:42:00,53.0,52.0,-100.00,East,100,7.0,12.0,94,0.44,,,-99.99,,2013-10-30 16:42:00,
2013-10-30 12:22:00,54.0,53.0,-100.00,ESE,110,19.0,27.0,94,0.00,,,-99.99,,2013-10-30 17:22:00,
2013-10-30 12:42:00,57.0,55.0,-100.00,East,90,17.0,24.0,94,0.00,,,-99.99,,2013-10-30 17:42:00,
2013-10-30 13:21:00,59.0,57.0,-100.00,East,95,12.0,19.0,94,0.00,,,-99.99,,2013-10-30 18:21:00,
2013-10-30 13:42:00,59.0,57.0,-100.00,East,100,17.0,21.0,93,0.00,,,-99.99,,2013-10-30 18:42:00,
2013-10-30 14:21:00,63.0,57.0,-100.00,ESE,115,17.0,24.0,80,0.00,,,-99.99,,2013-10-30 19:21:00,
2013-10-30 14:42:00,62.0,56.0,-100.00,ESE,120,17.0,23.0,82,0.00,,,-99.99,,2013-10-30 19:42:00,
2013-10-30 15:21:00,62.0,58.0,-100.00,SE,135,13.0,20.0,84,0.00,,,-99.99,,2013-10-30 20:21:00,
2013-10-30 15:42:00,61.0,57.0,-100.00,SE,130,15.0,22.0,86,0.00,,,-99.99,,2013-10-30 20:42:00,
2013-10-30 16:21:00,60.0,56.0,-100.00,SE,140,14.0,22.0,89,0.00,,,-99.99,,2013-10-30 21:21:00,
2013-10-30 16:43:00,60.0,57.0,-100.00,SE,145,16.0,22.0,90,0.00,,,-99.99,,2013-10-30 21:43:00,
2013-10-30 17:23:00,59.0,56.0,-100.00,SE,140,15.0,20.0,90,0.00,,,-99.99,,2013-10-30 22:23:00,
2013-10-30 17:43:00,59.0,56.0,-100.00,SSE,150,11.0,16.0,91,0.00,,,-99.99,,2013-10-30 22:43:00,
2013-10-30 18:22:00,59.0,56.0,-100.00,SSE,155,9.0,14.0,91,0.00,,,-99.99,,2013-10-30 23:22:00,
2013-10-30 18:42:00,59.0,56.0,-100.00,South,170,7.0,9.0,91,0.00,,,-99.99,,2013-10-30 23:42:00,
2013-10-30 19:22:00,59.0,56.0,-100.00,SE,140,7.0,10.0,92,0.00,,,-99.99,,2013-10-31 00:22:00,
2013-10-30 19:42:00,59.0,56.0,-100.00,South,170,6.0,9.0,92,0.00,,,-99.99,,2013-10-31 00:42:00,
2013-10-30 20:22:00,58.0,56.0,-100.00,SW,225,2.0,5.0,92,0.00,,,-99.99,,2013-10-31 01:22:00,
2013-10-30 20:42:00,58.0,56.0,-100.00,West,265,4.0,4.0,93,0.00,,,-99.99,,2013-10-31 01:42:00,
2013-10-30 21:22:00,49.0,47.0,-100.00,NNW,330,13.0,19.0,93,0.13,,,-99.99,,2013-10-31 02:22:00,
2013-10-30 22:22:00,49.0,47.0,-100.00,North,350,11.0,12.0,94,0.00,,,-99.99,,2013-10-31 03:22:00,
2013-10-30 22:44:00,49.0,47.0,-100.00,NNW,330,11.0,16.0,94,0.00,,,-99.99,,2013-10-31 03:44:00,
2013-10-30 23:23:00,48.0,47.0,-100.00,NNW,330,9.0,14.0,94,0.00,,,-99.99,,2013-10-31 04:23:00,
2013-10-30 23:43:00,48.0,46.0,-100.00,NW,325,9.0,14.0,94,0.00,,,-99.99,,2013-10-31 04:43:00,